Time;durP1;ratioP1;P1;durP2;ratioP2;P2;SDS_P1;SDS_P2;PMS_P1;PMS_P2;Temp;Humidity;BMP_temperature;BMP_pressure;BME280_temperature;BME280_humidity;BME280_pressure;Samples;Min_cycle;Max_cycle;Signal;HPM_P1;HPM_P2
2023/03/10 00:02:20;;;;;;;30.02;17.77;;;;;;;;;;4886210;29;20048;-87
2023/03/10 00:04:49;;;;;;;31.48;18.00;;;;;;;;;;4908412;29;20124;-87
2023/03/10 00:07:16;;;;;;;32.50;17.92;;;;;;;;;;4906852;29;20048;-86
2023/03/10 00:09:42;;;;;;;29.42;16.50;;;;;;;;;;4907521;29;20056;-87
2023/03/10 00:12:08;;;;;;;29.02;17.05;;;;;;;;;;4904858;29;20052;-88
2023/03/10 00:14:35;;;;;;;27.60;16.15;;;;;;;;;;4908899;29;20041;-87
2023/03/10 00:17:01;;;;;;;26.27;15.55;;;;;;;;;;4907454;29;20139;-88
2023/03/10 00:19:27;;;;;;;29.17;15.65;;;;;;;;;;4907854;29;20397;-86
2023/03/10 00:21:53;;;;;;;29.83;16.50;;;;;;;;;;4910525;29;20051;-88
2023/03/10 00:24:20;;;;;;;25.50;15.23;;;;;;;;;;4908046;29;20413;-88
2023/03/10 00:26:46;;;;;;;28.10;15.68;;;;;;;;;;4906037;29;20141;-88
2023/03/10 00:29:12;;;;;;;26.45;15.10;;;;;;;;;;4884855;29;20056;-86
2023/03/10 00:31:38;;;;;;;25.88;15.30;;;;;;;;;;4906747;29;20055;-85
2023/03/10 00:34:05;;;;;;;29.85;17.42;;;;;;;;;;4909319;29;20150;-86
2023/03/10 00:36:31;;;;;;;27.48;16.40;;;;;;;;;;4906758;29;21780;-87
2023/03/10 00:39:00;;;;;;;29.65;17.30;;;;;;;;;;4923478;29;20476;-87
2023/03/10 00:41:29;;;;;;;32.53;18.75;;;;;;;;;;4924866;29;20048;-87
2023/03/10 00:43:56;;;;;;;36.40;19.48;;;;;;;;;;4927086;29;20063;-87
2023/03/10 00:46:22;;;;;;;36.85;20.65;;;;;;;;;;4924193;29;20039;-88
2023/03/10 00:48:49;;;;;;;37.13;21.80;;;;;;;;;;4907457;29;20048;-87
2023/03/10 00:51:16;;;;;;;41.00;23.00;;;;;;;;;;4927902;29;20138;-86
2023/03/10 00:53:42;;;;;;;39.55;22.65;;;;;;;;;;4903631;29;20067;-86
2023/03/10 00:56:11;;;;;;;40.60;23.13;;;;;;;;;;4926876;29;20408;-87
2023/03/10 00:58:38;;;;;;;40.85;23.60;;;;;;;;;;4922415;29;20039;-86
2023/03/10 01:01:05;;;;;;;40.03;23.48;;;;;;;;;;4910037;29;20047;-87
2023/03/10 01:03:31;;;;;;;38.28;23.17;;;;;;;;;;4907461;29;20412;-86
2023/03/10 01:05:58;;;;;;;43.00;25.30;;;;;;;;;;4906385;29;20056;-85
2023/03/10 01:08:24;;;;;;;43.22;24.80;;;;;;;;;;4907151;29;20047;-86
2023/03/10 01:10:51;;;;;;;43.33;26.13;;;;;;;;;;4923246;29;20391;-88
2023/03/10 01:13:17;;;;;;;44.38;26.17;;;;;;;;;;4921622;29;20075;-86
2023/03/10 01:15:46;;;;;;;41.05;25.13;;;;;;;;;;4925885;29;20080;-86
2023/03/10 01:18:13;;;;;;;40.53;22.73;;;;;;;;;;4899955;29;20060;-86
2023/03/10 01:20:45;;;;;;;38.97;21.83;;;;;;;;;;4928337;29;20079;-86
2023/03/10 01:23:16;;;;;;;30.42;18.70;;;;;;;;;;4911049;29;20047;-86
2023/03/10 01:25:43;;;;;;;33.83;18.73;;;;;;;;;;4924332;29;20048;-86
2023/03/10 01:28:09;;;;;;;29.67;17.85;;;;;;;;;;4909420;29;20613;-87
2023/03/10 01:30:35;;;;;;;29.23;17.55;;;;;;;;;;4884977;29;1122539;-85
2023/03/10 01:33:01;;;;;;;31.65;16.77;;;;;;;;;;4923286;29;20119;-87
2023/03/10 01:35:29;;;;;;;26.88;16.10;;;;;;;;;;4906144;29;20048;-85
2023/03/10 01:37:55;;;;;;;21.98;14.60;;;;;;;;;;4924061;29;20052;-85
2023/03/10 01:40:21;;;;;;;26.83;15.75;;;;;;;;;;4927083;29;20043;-85
2023/03/10 01:42:47;;;;;;;25.45;14.82;;;;;;;;;;4925314;29;20063;-86
2023/03/10 01:45:13;;;;;;;23.88;14.88;;;;;;;;;;4890676;29;20150;-85
2023/03/10 01:47:40;;;;;;;24.70;14.63;;;;;;;;;;4925685;29;20055;-86
2023/03/10 01:50:08;;;;;;;23.90;14.48;;;;;;;;;;4911125;29;20039;-87
2023/03/10 01:52:34;;;;;;;25.65;14.45;;;;;;;;;;4927092;29;20051;-85
2023/03/10 01:55:00;;;;;;;23.00;13.85;;;;;;;;;;4923998;29;20044;-86
2023/03/10 01:57:29;;;;;;;22.80;13.73;;;;;;;;;;4909596;29;20055;-87
2023/03/10 01:59:56;;;;;;;20.77;12.70;;;;;;;;;;4911424;29;20518;-86
2023/03/10 02:02:24;;;;;;;21.85;13.93;;;;;;;;;;4922092;29;20110;-86
2023/03/10 02:04:51;;;;;;;22.48;14.65;;;;;;;;;;4922219;29;20091;-86
2023/03/10 02:07:20;;;;;;;20.88;13.32;;;;;;;;;;4923449;29;20043;-87
2023/03/10 02:09:48;;;;;;;23.33;13.80;;;;;;;;;;4919971;29;20052;-87
2023/03/10 02:12:15;;;;;;;20.23;13.23;;;;;;;;;;4907744;29;20122;-86
2023/03/10 02:14:42;;;;;;;22.25;13.75;;;;;;;;;;4926178;29;20059;-88
2023/03/10 02:17:10;;;;;;;21.55;13.10;;;;;;;;;;4925443;29;20043;-87
2023/03/10 02:19:45;;;;;;;23.83;13.48;;;;;;;;;;4923586;29;20164;-87
2023/03/10 02:22:11;;;;;;;21.50;13.25;;;;;;;;;;4906535;29;20043;-87
2023/03/10 02:24:38;;;;;;;22.30;14.30;;;;;;;;;;4908201;29;20062;-88
2023/03/10 02:27:23;;;;;;;23.67;14.70;;;;;;;;;;4906334;29;20050;-87
2023/03/10 02:29:52;;;;;;;21.23;13.52;;;;;;;;;;4887396;28;20138;-88
2023/03/10 02:32:19;;;;;;;26.05;15.15;;;;;;;;;;4907930;29;20075;-88
2023/03/10 02:34:45;;;;;;;25.05;14.13;;;;;;;;;;4904464;29;20107;-88
2023/03/10 02:37:20;;;;;;;21.08;13.85;;;;;;;;;;4906083;29;20058;-88
2023/03/10 02:39:46;;;;;;;24.73;13.65;;;;;;;;;;4908317;29;20106;-86
2023/03/10 02:42:12;;;;;;;24.20;14.82;;;;;;;;;;4906226;29;20059;-86
2023/03/10 02:44:39;;;;;;;23.58;14.60;;;;;;;;;;4925355;29;20174;-87
2023/03/10 02:47:06;;;;;;;23.45;14.02;;;;;;;;;;4886511;29;20036;-87
2023/03/10 02:49:33;;;;;;;24.98;14.82;;;;;;;;;;4908969;29;20047;-87
2023/03/10 02:52:02;;;;;;;24.90;15.05;;;;;;;;;;4923285;29;20073;-88
2023/03/10 02:54:28;;;;;;;23.75;14.45;;;;;;;;;;4905363;29;20047;-88
2023/03/10 02:56:54;;;;;;;24.27;13.82;;;;;;;;;;4908828;29;20091;-87
2023/03/10 02:59:20;;;;;;;24.90;14.20;;;;;;;;;;4907188;29;20052;-88
2023/03/10 03:01:46;;;;;;;23.45;13.50;;;;;;;;;;4924497;29;20040;-86
2023/03/10 03:04:12;;;;;;;22.42;14.00;;;;;;;;;;4924163;29;20114;-87
2023/03/10 03:06:39;;;;;;;21.88;13.15;;;;;;;;;;4908023;29;20515;-86
2023/03/10 03:09:06;;;;;;;23.85;14.07;;;;;;;;;;4925844;29;20040;-86
2023/03/10 03:11:32;;;;;;;26.42;15.05;;;;;;;;;;4924296;29;20141;-87
2023/03/10 03:13:58;;;;;;;27.10;15.30;;;;;;;;;;4909037;29;20264;-87
2023/03/10 03:16:25;;;;;;;28.13;16.30;;;;;;;;;;4907425;29;20059;-87
2023/03/10 03:18:51;;;;;;;26.35;15.95;;;;;;;;;;4923269;29;20484;-87
2023/03/10 03:21:17;;;;;;;29.38;16.63;;;;;;;;;;4903993;29;20620;-87
2023/03/10 03:23:45;;;;;;;25.27;16.58;;;;;;;;;;4925415;29;20164;-86
2023/03/10 03:26:14;;;;;;;25.80;15.70;;;;;;;;;;4923267;29;20041;-86
2023/03/10 03:28:41;;;;;;;29.63;17.17;;;;;;;;;;4904828;29;20052;-87
2023/03/10 03:31:07;;;;;;;28.67;17.45;;;;;;;;;;4924685;29;20135;-88
2023/03/10 03:33:33;;;;;;;29.77;17.92;;;;;;;;;;4908537;29;20044;-87
2023/03/10 03:35:59;;;;;;;27.85;17.05;;;;;;;;;;4909408;29;20082;-87
2023/03/10 03:38:26;;;;;;;30.67;18.48;;;;;;;;;;4910521;29;20039;-88
2023/03/10 03:40:52;;;;;;;28.15;17.48;;;;;;;;;;4926153;29;20048;-89
2023/03/10 03:43:18;;;;;;;30.23;17.88;;;;;;;;;;4888971;29;20055;-88
2023/03/10 03:45:44;;;;;;;30.98;19.10;;;;;;;;;;4923176;29;20521;-86
2023/03/10 03:48:12;;;;;;;34.80;19.33;;;;;;;;;;4909341;29;20144;-87
2023/03/10 03:50:39;;;;;;;30.05;18.20;;;;;;;;;;4936165;29;20075;-86
2023/03/10 03:53:05;;;;;;;32.78;19.85;;;;;;;;;;4922664;29;20131;-86
2023/03/10 03:55:31;;;;;;;30.00;19.08;;;;;;;;;;4929516;29;20079;-87
2023/03/10 03:57:57;;;;;;;34.17;19.88;;;;;;;;;;4939233;29;20114;-87
2023/03/10 04:00:24;;;;;;;35.05;20.70;;;;;;;;;;4910124;29;20047;-88
2023/03/10 04:02:50;;;;;;;31.45;19.48;;;;;;;;;;4921542;29;20134;-88
2023/03/10 04:05:16;;;;;;;31.60;19.55;;;;;;;;;;4924415;29;20048;-87
2023/03/10 04:07:43;;;;;;;34.03;20.83;;;;;;;;;;4922452;29;20127;-86
2023/03/10 04:10:12;;;;;;;33.05;18.90;;;;;;;;;;4922748;29;22563;-87
2023/03/10 04:12:38;;;;;;;31.95;19.55;;;;;;;;;;4913155;29;20051;-87
2023/03/10 04:15:05;;;;;;;35.13;21.48;;;;;;;;;;4907995;29;20492;-88
2023/03/10 04:17:32;;;;;;;37.78;21.02;;;;;;;;;;4906357;29;20087;-88
2023/03/10 04:19:58;;;;;;;33.63;20.52;;;;;;;;;;4937739;29;20050;-86
2023/03/10 04:22:24;;;;;;;35.70;19.08;;;;;;;;;;4921995;29;20103;-87
2023/03/10 04:24:50;;;;;;;32.92;19.90;;;;;;;;;;4937204;29;20063;-87
2023/03/10 04:27:16;;;;;;;33.40;19.52;;;;;;;;;;4918579;29;20048;-88
2023/03/10 04:29:43;;;;;;;35.90;20.75;;;;;;;;;;4907759;29;20052;-85
2023/03/10 04:32:09;;;;;;;35.08;21.88;;;;;;;;;;4923921;29;20067;-88
2023/03/10 04:34:35;;;;;;;36.35;21.00;;;;;;;;;;4904134;29;20075;-88
2023/03/10 04:37:02;;;;;;;35.97;20.85;;;;;;;;;;4912419;29;20120;-88
2023/03/10 04:39:28;;;;;;;37.70;20.73;;;;;;;;;;4909277;29;20040;-89
2023/03/10 04:41:54;;;;;;;37.80;20.90;;;;;;;;;;4923574;29;20408;-89
2023/03/10 04:44:20;;;;;;;34.90;20.85;;;;;;;;;;4906862;29;20422;-90
2023/03/10 04:46:46;;;;;;;35.00;20.23;;;;;;;;;;4907848;29;20516;-89
2023/03/10 04:49:14;;;;;;;32.70;20.30;;;;;;;;;;4928321;29;20064;-89
2023/03/10 04:51:40;;;;;;;37.80;20.50;;;;;;;;;;4909696;29;20071;-89
2023/03/10 04:54:07;;;;;;;30.95;18.85;;;;;;;;;;4923932;29;20101;-89
2023/03/10 04:56:33;;;;;;;31.58;18.83;;;;;;;;;;4910693;29;20384;-89
2023/03/10 04:58:59;;;;;;;31.45;19.85;;;;;;;;;;4923281;29;20425;-89
2023/03/10 05:01:28;;;;;;;33.22;19.30;;;;;;;;;;4909779;29;20630;-90
2023/03/10 05:03:54;;;;;;;35.50;19.73;;;;;;;;;;4911921;29;20052;-88
2023/03/10 05:06:21;;;;;;;32.42;18.15;;;;;;;;;;4909378;29;20102;-88
2023/03/10 05:08:47;;;;;;;37.05;20.20;;;;;;;;;;4908364;29;20242;-88
2023/03/10 05:11:13;;;;;;;34.65;18.83;;;;;;;;;;4925659;29;20040;-88
2023/03/10 05:13:40;;;;;;;34.60;19.00;;;;;;;;;;4909125;29;20043;-88
2023/03/10 05:16:12;;;;;;;37.60;21.40;;;;;;;;;;4923501;29;20052;-89
2023/03/10 05:18:38;;;;;;;40.22;20.42;;;;;;;;;;4909748;29;20044;-89
2023/03/10 05:21:04;;;;;;;43.67;22.30;;;;;;;;;;4923476;29;20063;-88
2023/03/10 05:23:30;;;;;;;49.90;22.02;;;;;;;;;;4910048;29;20065;-88
2023/03/10 05:25:56;;;;;;;44.08;22.33;;;;;;;;;;4912219;29;20500;-89
2023/03/10 05:28:23;;;;;;;45.03;24.67;;;;;;;;;;4924840;29;20051;-87
2023/03/10 05:30:49;;;;;;;53.40;25.38;;;;;;;;;;4901253;29;20471;-88
2023/03/10 05:33:15;;;;;;;50.58;26.15;;;;;;;;;;4891713;29;20054;-89
2023/03/10 05:35:41;;;;;;;49.60;25.88;;;;;;;;;;4890990;29;20048;-87
2023/03/10 05:38:08;;;;;;;52.05;27.05;;;;;;;;;;4891833;29;20044;-89
2023/03/10 05:40:35;;;;;;;57.83;27.77;;;;;;;;;;4890285;29;20049;-88
2023/03/10 05:43:01;;;;;;;59.38;28.40;;;;;;;;;;4889753;29;20401;-87
2023/03/10 05:45:28;;;;;;;57.05;29.13;;;;;;;;;;4889830;29;20455;-86
2023/03/10 05:47:54;;;;;;;60.45;28.55;;;;;;;;;;4904980;29;20481;-89
2023/03/10 05:50:20;;;;;;;61.10;29.13;;;;;;;;;;4903295;29;21233;-87
2023/03/10 05:52:46;;;;;;;63.28;28.42;;;;;;;;;;4903289;29;20044;-89
2023/03/10 05:55:14;;;;;;;59.85;28.50;;;;;;;;;;4902013;29;20464;-88
2023/03/10 05:57:40;;;;;;;58.53;28.33;;;;;;;;;;4907960;29;20053;-88
2023/03/10 06:00:09;;;;;;;53.17;26.88;;;;;;;;;;4894494;29;20044;-89
2023/03/10 06:02:37;;;;;;;52.42;27.58;;;;;;;;;;4887643;29;20048;-89
2023/03/10 06:05:04;;;;;;;52.30;26.63;;;;;;;;;;4903704;29;20127;-88
2023/03/10 06:07:30;;;;;;;51.53;25.63;;;;;;;;;;4906998;29;20432;-88
2023/03/10 06:09:57;;;;;;;46.30;22.65;;;;;;;;;;4889789;29;20051;-87
2023/03/10 06:12:23;;;;;;;50.05;24.35;;;;;;;;;;4903943;29;20083;-87
2023/03/10 06:14:49;;;;;;;51.40;23.27;;;;;;;;;;4890009;29;20048;-88
2023/03/10 06:17:15;;;;;;;48.95;22.40;;;;;;;;;;4905796;29;20052;-89
2023/03/10 06:19:41;;;;;;;44.10;22.33;;;;;;;;;;4903553;29;20187;-88
2023/03/10 06:22:08;;;;;;;44.78;21.50;;;;;;;;;;4905225;29;20142;-87
2023/03/10 06:24:34;;;;;;;41.58;21.52;;;;;;;;;;4890821;29;20079;-85
2023/03/10 06:27:00;;;;;;;37.10;20.38;;;;;;;;;;4901635;29;20036;-86
2023/03/10 06:29:26;;;;;;;39.78;20.45;;;;;;;;;;4888980;29;20098;-90
2023/03/10 06:31:52;;;;;;;42.28;21.05;;;;;;;;;;4891712;29;20060;-89
2023/03/10 06:34:18;;;;;;;45.78;20.23;;;;;;;;;;4901981;29;20052;-91
2023/03/10 06:36:45;;;;;;;40.10;20.25;;;;;;;;;;4903852;29;20126;-87
2023/03/10 06:39:11;;;;;;;39.33;19.27;;;;;;;;;;4904280;29;20453;-84
2023/03/10 06:41:37;;;;;;;34.70;18.65;;;;;;;;;;4900990;29;20049;-84
2023/03/10 06:44:04;;;;;;;39.78;19.75;;;;;;;;;;4901577;29;20040;-84
2023/03/10 06:46:30;;;;;;;42.90;19.63;;;;;;;;;;4901657;29;20048;-85
2023/03/10 06:48:56;;;;;;;43.85;20.20;;;;;;;;;;4887406;29;20047;-83
2023/03/10 06:51:23;;;;;;;41.35;18.90;;;;;;;;;;4888065;29;20052;-87
2023/03/10 06:53:49;;;;;;;37.10;19.55;;;;;;;;;;4901221;29;20044;-86
2023/03/10 06:56:17;;;;;;;37.83;19.30;;;;;;;;;;4903601;29;20119;-81
2023/03/10 06:58:44;;;;;;;37.95;19.48;;;;;;;;;;4901208;29;20044;-87
2023/03/10 07:01:21;;;;;;;40.10;18.63;;;;;;;;;;4891704;29;20048;-85
2023/03/10 07:03:48;;;;;;;40.15;20.42;;;;;;;;;;4903888;29;20050;-86
2023/03/10 07:06:14;;;;;;;35.97;18.70;;;;;;;;;;4886233;29;20109;-89
2023/03/10 07:08:40;;;;;;;30.30;17.23;;;;;;;;;;4886698;29;20059;-90
2023/03/10 07:11:06;;;;;;;32.95;17.35;;;;;;;;;;4901996;29;20534;-85
2023/03/10 07:13:32;;;;;;;32.53;17.65;;;;;;;;;;4901378;29;20385;-85
2023/03/10 07:15:59;;;;;;;29.83;16.33;;;;;;;;;;4899195;29;20210;-85
2023/03/10 07:18:28;;;;;;;28.38;15.82;;;;;;;;;;4898816;29;20147;-86
2023/03/10 07:20:55;;;;;;;29.25;16.08;;;;;;;;;;4888658;29;20060;-85
2023/03/10 07:23:21;;;;;;;27.05;15.18;;;;;;;;;;4885826;29;20540;-87
2023/03/10 07:25:51;;;;;;;24.23;15.10;;;;;;;;;;4901810;29;20844;-88
2023/03/10 07:28:17;;;;;;;24.00;14.30;;;;;;;;;;4901747;29;20480;-87
2023/03/10 07:30:43;;;;;;;24.65;14.13;;;;;;;;;;4910095;29;20424;-93
2023/03/10 07:33:10;;;;;;;26.83;13.80;;;;;;;;;;4922871;29;20500;-90
2023/03/10 07:35:36;;;;;;;25.33;13.90;;;;;;;;;;4921515;29;20106;-85
2023/03/10 07:38:03;;;;;;;26.30;14.15;;;;;;;;;;4906098;29;20495;-89
2023/03/10 07:40:29;;;;;;;26.35;15.18;;;;;;;;;;4908632;29;20043;-90
2023/03/10 07:42:56;;;;;;;21.98;13.38;;;;;;;;;;4908487;29;20044;-88
2023/03/10 07:45:22;;;;;;;24.75;14.50;;;;;;;;;;4901661;29;20127;-88
2023/03/10 07:47:50;;;;;;;25.40;13.95;;;;;;;;;;4907411;29;20063;-87
2023/03/10 07:50:16;;;;;;;29.80;15.15;;;;;;;;;;4907621;29;20076;-87
2023/03/10 07:52:42;;;;;;;24.17;14.23;;;;;;;;;;4926904;29;20054;-91
2023/03/10 07:55:09;;;;;;;26.20;13.55;;;;;;;;;;4919456;29;21650;-88
2023/03/10 07:57:35;;;;;;;25.90;14.73;;;;;;;;;;4910779;29;20415;-90
2023/03/10 08:00:01;;;;;;;28.85;14.23;;;;;;;;;;4907667;29;20040;-88
2023/03/10 08:02:27;;;;;;;28.65;16.00;;;;;;;;;;4924493;29;20055;-89
2023/03/10 08:04:53;;;;;;;25.67;14.38;;;;;;;;;;4924278;29;20480;-90
2023/03/10 08:07:21;;;;;;;26.95;14.98;;;;;;;;;;4909539;29;20136;-90
2023/03/10 08:09:49;;;;;;;24.70;13.85;;;;;;;;;;4914167;29;20044;-90
2023/03/10 08:12:16;;;;;;;29.65;14.60;;;;;;;;;;4914121;29;20456;-89
2023/03/10 08:14:42;;;;;;;28.42;15.35;;;;;;;;;;4930059;29;20040;-92
2023/03/10 08:17:08;;;;;;;28.38;16.60;;;;;;;;;;4926119;29;20036;-83
2023/03/10 08:19:34;;;;;;;32.85;17.85;;;;;;;;;;4909679;29;20047;-81
2023/03/10 08:22:01;;;;;;;36.20;18.80;;;;;;;;;;4925504;29;20127;-82
2023/03/10 08:24:27;;;;;;;33.50;18.75;;;;;;;;;;4909115;29;20048;-81
2023/03/10 08:26:53;;;;;;;36.20;18.83;;;;;;;;;;4909566;29;20052;-83
2023/03/10 08:29:19;;;;;;;32.90;18.25;;;;;;;;;;4913994;29;20131;-85
2023/03/10 08:31:45;;;;;;;41.17;20.17;;;;;;;;;;4895264;29;20060;-81
2023/03/10 08:34:12;;;;;;;34.20;19.20;;;;;;;;;;4904122;29;20450;-82
2023/03/10 08:36:39;;;;;;;35.85;19.45;;;;;;;;;;4907714;29;20103;-83
2023/03/10 08:39:06;;;;;;;35.97;19.90;;;;;;;;;;4893656;29;20056;-82
2023/03/10 08:41:33;;;;;;;39.20;20.80;;;;;;;;;;4890881;29;20127;-82
2023/03/10 08:44:00;;;;;;;38.10;19.98;;;;;;;;;;4908237;29;20049;-81
2023/03/10 08:46:28;;;;;;;35.67;18.95;;;;;;;;;;4893959;29;20068;-81
2023/03/10 08:48:54;;;;;;;37.50;19.52;;;;;;;;;;4913901;29;20040;-82
2023/03/10 08:51:21;;;;;;;34.90;18.50;;;;;;;;;;4898004;29;20059;-82
2023/03/10 08:53:48;;;;;;;34.17;18.80;;;;;;;;;;4906427;29;20048;-83
2023/03/10 08:56:14;;;;;;;30.15;17.55;;;;;;;;;;4908138;29;20107;-85
2023/03/10 08:58:40;;;;;;;33.95;18.63;;;;;;;;;;4908730;29;20055;-80
2023/03/10 09:01:07;;;;;;;34.70;19.27;;;;;;;;;;4903928;29;20460;-81
2023/03/10 09:03:37;;;;;;;38.03;19.77;;;;;;;;;;4891298;29;20071;-81
2023/03/10 09:06:04;;;;;;;33.38;18.65;;;;;;;;;;4905684;29;20166;-82
2023/03/10 09:08:31;;;;;;;35.60;19.40;;;;;;;;;;4910050;29;20408;-84
2023/03/10 09:10:57;;;;;;;31.23;18.13;;;;;;;;;;4905218;29;20045;-83
2023/03/10 09:13:23;;;;;;;34.08;18.55;;;;;;;;;;4906175;29;20040;-83
2023/03/10 09:15:51;;;;;;;37.38;19.75;;;;;;;;;;4894524;29;20056;-83
2023/03/10 09:18:18;;;;;;;33.58;19.35;;;;;;;;;;4888021;29;20079;-84
2023/03/10 09:20:44;;;;;;;35.80;19.83;;;;;;;;;;4900066;29;20123;-82
2023/03/10 09:23:11;;;;;;;31.27;16.95;;;;;;;;;;4904885;29;20108;-82
2023/03/10 09:25:40;;;;;;;32.63;17.90;;;;;;;;;;4918714;29;20055;-82
2023/03/10 09:28:07;;;;;;;27.88;16.92;;;;;;;;;;4907732;29;20040;-82
2023/03/10 09:30:36;;;;;;;28.15;15.98;;;;;;;;;;4909615;29;20051;-84
2023/03/10 09:33:04;;;;;;;28.20;16.40;;;;;;;;;;4909903;29;20102;-81
2023/03/10 09:35:30;;;;;;;31.88;15.07;;;;;;;;;;4925498;29;20191;-82
2023/03/10 09:37:56;;;;;;;27.98;14.55;;;;;;;;;;4910445;29;20051;-81
2023/03/10 09:40:22;;;;;;;25.80;14.18;;;;;;;;;;4926519;29;20047;-82
2023/03/10 09:42:51;;;;;;;29.63;15.35;;;;;;;;;;4909671;29;20044;-83
2023/03/10 09:45:35;;;;;;;28.48;15.63;;;;;;;;;;4918411;29;20047;-81
2023/03/10 09:48:20;;;;;;;28.73;14.77;;;;;;;;;;4940315;29;20048;-84
2023/03/10 09:50:48;;;;;;;27.73;15.32;;;;;;;;;;4940839;29;20056;-82
2023/03/10 09:53:14;;;;;;;29.83;16.70;;;;;;;;;;4928600;29;20536;-82
2023/03/10 09:55:43;;;;;;;28.55;16.58;;;;;;;;;;4905829;29;20102;-82
2023/03/10 09:58:13;;;;;;;32.72;16.60;;;;;;;;;;4907978;29;20095;-81
2023/03/10 10:00:40;;;;;;;32.00;17.52;;;;;;;;;;4908000;29;20134;-82
2023/03/10 10:03:19;;;;;;;34.53;17.15;;;;;;;;;;4926632;29;20111;-81
2023/03/10 10:05:47;;;;;;;32.90;18.45;;;;;;;;;;4907323;29;20471;-81
2023/03/10 10:08:17;;;;;;;32.78;17.83;;;;;;;;;;4906915;29;20448;-79
2023/03/10 10:10:45;;;;;;;31.30;18.55;;;;;;;;;;4910110;29;20098;-84
2023/03/10 10:13:13;;;;;;;30.90;18.50;;;;;;;;;;4910438;29;20613;-85
2023/03/10 10:15:43;;;;;;;34.75;19.77;;;;;;;;;;4908687;29;20051;-88
2023/03/10 10:18:30;;;;;;;33.47;19.08;;;;;;;;;;4909142;29;20059;-85
2023/03/10 10:20:59;;;;;;;36.22;19.85;;;;;;;;;;4910063;29;20488;-86
2023/03/10 10:23:29;;;;;;;36.28;19.00;;;;;;;;;;4924548;29;20411;-75
2023/03/10 10:26:00;;;;;;;34.80;18.67;;;;;;;;;;4912622;29;20072;-80
2023/03/10 10:28:32;;;;;;;39.00;20.58;;;;;;;;;;4925336;29;20044;-81
2023/03/10 10:31:16;;;;;;;33.78;20.50;;;;;;;;;;4922850;29;20058;-83
2023/03/10 10:33:51;;;;;;;38.38;21.50;;;;;;;;;;4924825;29;20051;-86
2023/03/10 10:36:17;;;;;;;41.78;20.25;;;;;;;;;;4932568;29;20048;-91
2023/03/10 10:38:48;;;;;;;34.15;19.13;;;;;;;;;;4913428;29;20071;-90
2023/03/10 10:41:17;;;;;;;36.65;20.50;;;;;;;;;;4932288;29;20547;-92
2023/03/10 10:43:45;;;;;;;41.78;20.10;;;;;;;;;;4932719;29;20060;-81
2023/03/10 10:46:13;;;;;;;38.42;21.27;;;;;;;;;;4916599;29;20083;-90
2023/03/10 10:48:41;;;;;;;36.65;21.13;;;;;;;;;;4915325;29;20357;-86
2023/03/10 10:51:18;;;;;;;45.10;21.42;;;;;;;;;;4914500;29;20059;-86
2023/03/10 10:53:44;;;;;;;35.63;19.95;;;;;;;;;;4913688;29;20056;-84
2023/03/10 10:56:15;;;;;;;38.85;21.52;;;;;;;;;;4909941;29;20139;-84
2023/03/10 10:58:42;;;;;;;45.70;22.80;;;;;;;;;;4922987;29;20047;-88
2023/03/10 11:01:11;;;;;;;39.08;21.35;;;;;;;;;;4925836;29;20050;-84
2023/03/10 11:03:38;;;;;;;39.58;22.58;;;;;;;;;;4925127;29;20058;-84
2023/03/10 11:06:13;;;;;;;43.05;22.50;;;;;;;;;;4922903;29;20059;-87
2023/03/10 11:08:41;;;;;;;44.83;24.17;;;;;;;;;;4924499;29;20055;-82
2023/03/10 11:11:16;;;;;;;43.47;23.67;;;;;;;;;;4907531;29;20050;-84
2023/03/10 11:13:54;;;;;;;43.72;24.25;;;;;;;;;;4926186;29;20056;-85
2023/03/10 11:16:25;;;;;;;42.20;23.67;;;;;;;;;;4928512;29;20043;-84
2023/03/10 11:18:57;;;;;;;41.92;24.15;;;;;;;;;;4907180;29;20546;-85
2023/03/10 11:21:28;;;;;;;46.50;24.42;;;;;;;;;;4910508;29;20118;-84
2023/03/10 11:23:54;;;;;;;45.97;24.08;;;;;;;;;;4923889;29;20495;-88
2023/03/10 11:26:27;;;;;;;39.40;20.77;;;;;;;;;;4909397;29;20123;-87
2023/03/10 11:28:54;;;;;;;46.72;24.75;;;;;;;;;;4907772;29;20060;-91
2023/03/10 11:31:20;;;;;;;41.25;23.98;;;;;;;;;;4917789;29;20933;-87
2023/03/10 11:34:02;;;;;;;44.25;21.80;;;;;;;;;;4924523;29;20585;-87
2023/03/10 11:36:36;;;;;;;40.58;22.67;;;;;;;;;;4926208;29;20062;-85
2023/03/10 11:39:11;;;;;;;38.53;21.73;;;;;;;;;;4931789;29;20138;-89
2023/03/10 11:41:39;;;;;;;37.00;20.92;;;;;;;;;;4931540;29;20044;-89
2023/03/10 11:44:31;;;;;;;41.00;21.27;;;;;;;;;;4934547;29;20064;-88
2023/03/10 11:47:00;;;;;;;34.30;19.05;;;;;;;;;;4934221;29;20063;-96
2023/03/10 11:49:30;;;;;;;34.65;19.35;;;;;;;;;;4934534;29;20095;-96
2023/03/10 11:51:58;;;;;;;37.38;18.95;;;;;;;;;;4948841;28;20095;-92
2023/03/10 11:54:24;;;;;;;41.13;18.85;;;;;;;;;;4932007;29;20047;-87
2023/03/10 11:56:51;;;;;;;35.20;15.27;;;;;;;;;;4929526;29;20047;-93
2023/03/10 11:59:17;;;;;;;26.92;15.35;;;;;;;;;;4934404;29;20075;-92
2023/03/10 12:01:47;;;;;;;29.02;16.05;;;;;;;;;;4929620;29;20040;-90
2023/03/10 12:04:30;;;;;;;29.25;13.55;;;;;;;;;;4924964;29;20062;-92
2023/03/10 12:06:59;;;;;;;37.75;14.38;;;;;;;;;;4929825;29;20385;-87
2023/03/10 12:09:33;;;;;;;34.17;14.43;;;;;;;;;;4926027;29;20048;-88
2023/03/10 12:12:00;;;;;;;35.08;14.80;;;;;;;;;;4930798;29;20056;-91
2023/03/10 12:14:26;;;;;;;33.58;14.27;;;;;;;;;;4925684;29;20069;-89
2023/03/10 12:16:54;;;;;;;34.08;14.70;;;;;;;;;;4923750;29;20131;-90
2023/03/10 12:19:20;;;;;;;35.33;15.30;;;;;;;;;;4913272;29;20039;-90
2023/03/10 12:22:06;;;;;;;35.00;15.75;;;;;;;;;;4930473;29;20479;-90
2023/03/10 12:24:43;;;;;;;30.48;15.35;;;;;;;;;;4924708;29;20067;-91
2023/03/10 12:27:09;;;;;;;27.20;14.50;;;;;;;;;;4925247;29;20048;-92
2023/03/10 12:29:37;;;;;;;29.02;13.68;;;;;;;;;;4930354;29;20143;-93
2023/03/10 12:32:04;;;;;;;29.60;13.15;;;;;;;;;;4930596;29;20130;-91
2023/03/10 12:34:31;;;;;;;24.35;11.95;;;;;;;;;;4941039;28;20062;-78
2023/03/10 12:37:05;;;;;;;25.38;12.02;;;;;;;;;;4930992;29;20089;-85
2023/03/10 12:39:36;;;;;;;26.95;12.10;;;;;;;;;;4931356;29;20147;-84
2023/03/10 12:42:05;;;;;;;23.60;11.48;;;;;;;;;;4931777;29;20082;-85
2023/03/10 12:44:34;;;;;;;20.17;9.70;;;;;;;;;;4934646;29;20044;-82
2023/03/10 12:47:12;;;;;;;18.98;9.50;;;;;;;;;;4948976;29;20488;-83
2023/03/10 12:49:41;;;;;;;19.83;10.95;;;;;;;;;;4947154;29;20326;-82
2023/03/10 12:52:16;;;;;;;14.77;7.85;;;;;;;;;;4933635;29;20051;-83
2023/03/10 12:54:46;;;;;;;16.92;7.75;;;;;;;;;;4928815;29;20537;-82
2023/03/10 12:57:17;;;;;;;16.23;8.70;;;;;;;;;;4934704;29;20047;-80
2023/03/10 12:59:47;;;;;;;14.13;7.03;;;;;;;;;;4934671;29;20068;-80
2023/03/10 13:02:20;;;;;;;13.68;6.95;;;;;;;;;;4935210;29;20127;-80
2023/03/10 13:04:47;;;;;;;16.10;7.95;;;;;;;;;;4931711;29;20429;-76
2023/03/10 13:07:15;;;;;;;16.70;8.90;;;;;;;;;;4928459;29;20052;-75
2023/03/10 13:09:42;;;;;;;21.27;8.38;;;;;;;;;;4924918;29;20047;-75
2023/03/10 13:12:20;;;;;;;19.17;9.02;;;;;;;;;;4941253;29;20047;-74
2023/03/10 13:14:50;;;;;;;19.95;8.63;;;;;;;;;;4926162;29;20384;-74
2023/03/10 13:17:21;;;;;;;16.65;7.15;;;;;;;;;;4922929;29;20056;-75
2023/03/10 13:19:56;;;;;;;14.68;6.45;;;;;;;;;;4927493;29;20399;-74
2023/03/10 13:22:22;;;;;;;16.10;7.40;;;;;;;;;;4923162;29;20048;-75
2023/03/10 13:24:56;;;;;;;14.68;7.20;;;;;;;;;;4917832;29;20081;-73
2023/03/10 13:27:27;;;;;;;16.05;7.70;;;;;;;;;;4921764;29;20059;-68
2023/03/10 13:29:55;;;;;;;21.10;7.05;;;;;;;;;;4925395;29;20078;-68
2023/03/10 13:32:21;;;;;;;14.23;6.18;;;;;;;;;;4925485;29;20111;-67
2023/03/10 13:34:48;;;;;;;14.65;7.10;;;;;;;;;;4923904;29;20048;-67
2023/03/10 13:37:14;;;;;;;12.25;6.10;;;;;;;;;;4924680;29;20187;-68
2023/03/10 13:39:40;;;;;;;13.50;4.85;;;;;;;;;;4924325;29;20051;-68
2023/03/10 13:42:21;;;;;;;9.23;4.78;;;;;;;;;;4926573;29;20741;-68
2023/03/10 13:44:47;;;;;;;8.10;4.10;;;;;;;;;;4929981;29;20057;-68
2023/03/10 13:47:16;;;;;;;7.65;3.72;;;;;;;;;;4923305;29;20128;-68
2023/03/10 13:49:45;;;;;;;10.05;3.83;;;;;;;;;;4928875;29;20043;-68
2023/03/10 13:52:12;;;;;;;6.93;3.40;;;;;;;;;;4928085;29;20047;-69
2023/03/10 13:54:40;;;;;;;11.75;5.57;;;;;;;;;;4930281;29;20051;-69
2023/03/10 13:57:17;;;;;;;12.02;5.65;;;;;;;;;;4931747;29;20059;-67
2023/03/10 13:59:43;;;;;;;8.93;4.95;;;;;;;;;;4912573;29;20520;-68
2023/03/10 14:02:18;;;;;;;14.18;5.70;;;;;;;;;;4924863;29;20384;-69
2023/03/10 14:04:46;;;;;;;12.40;4.43;;;;;;;;;;4926326;29;20222;-68
2023/03/10 14:07:15;;;;;;;6.03;2.60;;;;;;;;;;4927225;29;20043;-68
2023/03/10 14:09:42;;;;;;;5.65;2.47;;;;;;;;;;4933366;29;20131;-68
2023/03/10 14:12:09;;;;;;;5.80;2.58;;;;;;;;;;4919652;29;20117;-68
2023/03/10 14:14:37;;;;;;;6.20;2.17;;;;;;;;;;4920406;29;20118;-68
2023/03/10 14:17:05;;;;;;;5.32;2.42;;;;;;;;;;4925279;29;20114;-69
2023/03/10 14:19:41;;;;;;;7.25;3.28;;;;;;;;;;4923554;29;20052;-68
2023/03/10 14:22:23;;;;;;;7.80;3.13;;;;;;;;;;4922908;29;20105;-68
2023/03/10 14:24:50;;;;;;;6.97;3.90;;;;;;;;;;4925775;29;20052;-69